Aviation Digital Data Service (ADDS)

Output produced by METARs form (1810 UTC 14 August 2018)
found at http://www.aviationweather.gov/adds/metars/
 
HTAR 141700Z 1418/1518 10008KT 9999 FEW020 
     TEMPO 1423/1503 -RA BKN016 SCT080 
     BECMG 1505/1508 BKN022
       
HTDA 141700Z 13005KT 9999 FEW015 24/20 Q1019 NOSIG
TAF HTDA 141700Z 1418/1524 13005KT 9999 FEW016 
     BECMG 1419/1422 00000KT 
     PROB40 
     TEMPO 1506/1510 12010KT RA BKN015
       
HTDO 141700Z 1418/1518 10010KT 9999 FEW028
       
HTKJ 141700Z 00000KT 9999 FEW030 23/13 Q1020 NOSIG
HTKJ 141700Z 1418/1518 09005KT 9999 FEW028 
     BECMG 1422/1501 BKN025
       
HTMW 141700Z 00000KT CAVOK 23/12 Q1017 NOSIG
HTMW 141700Z 1418/1518 00000KT 9999 FEW023 
     BECMG 1500/1502 12010KT 
     BECMG 1511/1513 33010KT
       
HTZA 141700Z 15006KT 9999 FEW018 26/20 Q1018 NOSIG
HTZA 141700Z 1418/1518 13005KT 9999 FEW016 
     BECMG 1502/1504 21010KT BKN018 
     BECMG 1510/1512 13015KT SCT022